Time;durP1;ratioP1;P1;durP2;ratioP2;P2;SDS_P1;SDS_P2;PMS_P1;PMS_P2;Temp;Humidity;BMP_temperature;BMP_pressure;BME280_temperature;BME280_humidity;BME280_pressure;Samples;Min_cycle;Max_cycle;Signal;HPM_P1;HPM_P2
2024/03/21 00:00:09;;;;;;;11.32;9.57;;;;;;;;;;10112043;28;20041;-75
2024/03/21 00:05:02;;;;;;;12.57;9.93;;;;;;;;;;10134338;28;20507;-76
2024/03/21 00:09:55;;;;;;;10.05;8.07;;;;;;;;;;10133766;28;20079;-76
2024/03/21 00:14:47;;;;;;;10.75;8.68;;;;;;;;;;10133642;28;20613;-75
2024/03/21 00:19:40;;;;;;;15.05;10.85;;;;;;;;;;10133406;28;20067;-75
2024/03/21 00:24:32;;;;;;;12.57;10.82;;;;;;;;;;10133462;28;20455;-75
2024/03/21 00:29:24;;;;;;;18.88;13.30;;;;;;;;;;10133171;28;20056;-75
2024/03/21 00:34:16;;;;;;;19.27;13.50;;;;;;;;;;10133091;28;20048;-75
2024/03/21 00:39:15;;;;;;;20.70;14.57;;;;;;;;;;10132742;28;20067;-74
2024/03/21 00:44:08;;;;;;;20.55;15.63;;;;;;;;;;10132454;28;20056;-75
2024/03/21 00:49:00;;;;;;;20.42;15.95;;;;;;;;;;10132522;28;20048;-75
2024/03/21 00:53:56;;;;;;;26.27;18.33;;;;;;;;;;10132218;28;20052;-75
2024/03/21 00:58:49;;;;;;;21.15;17.48;;;;;;;;;;10131942;28;20055;-75
2024/03/21 01:03:42;;;;;;;21.48;16.45;;;;;;;;;;10132294;28;20094;-75
2024/03/21 01:08:34;;;;;;;19.63;15.60;;;;;;;;;;10134252;28;20506;-76
2024/03/21 01:13:27;;;;;;;19.05;14.73;;;;;;;;;;10134062;28;20049;-76
2024/03/21 01:18:25;;;;;;;21.02;16.60;;;;;;;;;;10136219;28;20044;-76
2024/03/21 01:23:17;;;;;;;18.23;13.57;;;;;;;;;;10130145;28;20113;-75
2024/03/21 01:28:09;;;;;;;16.40;12.77;;;;;;;;;;10128490;28;20052;-77
2024/03/21 01:33:03;;;;;;;17.30;13.20;;;;;;;;;;10135892;28;20025;-75
2024/03/21 01:37:56;;;;;;;23.30;14.93;;;;;;;;;;10127183;28;20473;-75
2024/03/21 01:42:49;;;;;;;16.17;12.25;;;;;;;;;;10129034;28;20044;-75
2024/03/21 01:47:42;;;;;;;14.52;11.25;;;;;;;;;;10127915;28;20057;-77
2024/03/21 01:52:36;;;;;;;15.85;12.27;;;;;;;;;;10129083;28;20131;-76
2024/03/21 01:57:28;;;;;;;13.25;9.80;;;;;;;;;;10126961;28;20052;-76
2024/03/21 02:02:21;;;;;;;12.07;9.60;;;;;;;;;;10127462;28;20132;-77
2024/03/21 02:07:18;;;;;;;11.45;8.63;;;;;;;;;;10126999;28;20040;-76
2024/03/21 02:12:10;;;;;;;9.75;7.57;;;;;;;;;;10127886;28;20040;-75
2024/03/21 02:17:02;;;;;;;9.15;7.75;;;;;;;;;;10124819;28;20373;-76
2024/03/21 02:27:04;;;;;;;8.13;6.68;;;;;;;;;;10134741;28;20074;-76
2024/03/21 02:31:58;;;;;;;10.00;6.97;;;;;;;;;;10125934;28;20056;-77
2024/03/21 02:36:51;;;;;;;7.03;5.80;;;;;;;;;;10127410;28;20043;-75
2024/03/21 02:41:43;;;;;;;8.43;6.13;;;;;;;;;;10126624;28;20040;-76
2024/03/21 02:46:38;;;;;;;8.00;5.68;;;;;;;;;;10126288;28;20055;-76
2024/03/21 02:51:31;;;;;;;7.25;6.20;;;;;;;;;;10126511;28;20483;-76
2024/03/21 02:56:23;;;;;;;8.05;5.85;;;;;;;;;;10127326;28;20536;-76
2024/03/21 03:01:16;;;;;;;7.82;7.03;;;;;;;;;;10125230;28;20045;-77
2024/03/21 03:06:10;;;;;;;10.98;6.22;;;;;;;;;;10126242;28;20068;-76
2024/03/21 03:11:02;;;;;;;8.27;6.07;;;;;;;;;;10123080;28;20041;-75
2024/03/21 03:15:54;;;;;;;7.32;6.03;;;;;;;;;;10126036;28;20037;-77
2024/03/21 03:20:47;;;;;;;8.95;6.80;;;;;;;;;;10126360;28;20049;-76
2024/03/21 03:25:41;;;;;;;7.53;6.82;;;;;;;;;;10125355;28;20070;-75
2024/03/21 03:30:34;;;;;;;7.72;6.07;;;;;;;;;;10126908;28;20071;-76
2024/03/21 03:35:42;;;;;;;8.13;6.35;;;;;;;;;;10127046;28;20052;-76
2024/03/21 03:40:35;;;;;;;10.98;7.30;;;;;;;;;;10134416;28;20059;-75
2024/03/21 03:45:27;;;;;;;8.38;6.20;;;;;;;;;;10133168;28;20080;-76
2024/03/21 03:50:19;;;;;;;9.52;6.82;;;;;;;;;;10133768;28;20045;-75
2024/03/21 03:55:12;;;;;;;10.02;7.25;;;;;;;;;;10133559;28;20044;-75
2024/03/21 04:00:05;;;;;;;9.40;7.47;;;;;;;;;;10133279;28;20040;-78
2024/03/21 04:05:03;;;;;;;;;;;;;;;;;;10135323;28;20044;-76
2024/03/21 04:09:55;;;;;;;9.65;8.55;;;;;;;;;;10132302;28;19974;-77
2024/03/21 04:14:51;;;;;;;13.68;8.50;;;;;;;;;;10133087;28;20044;-76
2024/03/21 04:19:44;;;;;;;16.52;10.50;;;;;;;;;;10131768;28;20504;-76
2024/03/21 04:24:41;;;;;;;13.15;9.98;;;;;;;;;;10132340;28;20063;-76
2024/03/21 04:29:34;;;;;;;15.75;10.75;;;;;;;;;;10131633;28;20425;-75
2024/03/21 04:34:26;;;;;;;14.98;11.55;;;;;;;;;;10133374;28;20127;-75
2024/03/21 04:39:18;;;;;;;23.38;15.13;;;;;;;;;;10132438;28;20052;-77
2024/03/21 04:44:10;;;;;;;23.20;18.33;;;;;;;;;;10130974;28;20443;-76
2024/03/21 04:49:03;;;;;;;22.88;17.77;;;;;;;;;;10133700;28;20071;-76
2024/03/21 04:53:56;;;;;;;25.02;18.13;;;;;;;;;;10135056;28;20042;-77
2024/03/21 04:58:53;;;;;;;21.75;17.15;;;;;;;;;;10130545;28;20040;-76
2024/03/21 05:03:46;;;;;;;18.63;14.60;;;;;;;;;;10133633;28;20049;-75
2024/03/21 05:08:38;;;;;;;19.70;14.88;;;;;;;;;;10130284;28;20129;-76
2024/03/21 05:13:31;;;;;;;21.73;15.75;;;;;;;;;;10133266;28;20095;-75
2024/03/21 05:18:24;;;;;;;19.33;13.88;;;;;;;;;;10132785;28;20052;-77
2024/03/21 05:23:16;;;;;;;18.20;13.25;;;;;;;;;;10129962;28;20059;-76
2024/03/21 05:28:08;;;;;;;18.65;12.07;;;;;;;;;;10128474;28;20083;-74
2024/03/21 05:32:59;;;;;;;16.95;13.57;;;;;;;;;;10129009;28;20044;-76
2024/03/21 05:37:52;;;;;;;20.35;16.75;;;;;;;;;;10128501;28;20450;-76
2024/03/21 05:42:44;;;;;;;59.08;47.47;;;;;;;;;;10129462;28;20177;-75
2024/03/21 05:47:36;;;;;;;24.30;18.10;;;;;;;;;;10128375;28;20059;-76
2024/03/21 05:52:29;;;;;;;24.08;20.42;;;;;;;;;;10123631;28;20461;-75
2024/03/21 05:57:23;;;;;;;23.95;19.80;;;;;;;;;;10126381;28;20420;-75
2024/03/21 06:02:15;;;;;;;23.92;17.45;;;;;;;;;;10129545;28;20056;-77
2024/03/21 06:07:09;;;;;;;26.13;21.00;;;;;;;;;;10129674;28;20508;-77
2024/03/21 06:12:01;;;;;;;37.53;24.35;;;;;;;;;;10129502;28;20048;-76
2024/03/21 06:16:54;;;;;;;21.20;16.27;;;;;;;;;;10129192;28;20053;-77
2024/03/21 06:21:46;;;;;;;15.27;12.32;;;;;;;;;;10129158;28;20492;-76
2024/03/21 06:26:38;;;;;;;41.70;30.92;;;;;;;;;;10128882;28;20094;-77
2024/03/21 06:31:31;;;;;;;27.83;23.58;;;;;;;;;;10128597;28;20123;-76
2024/03/21 06:36:23;;;;;;;16.48;14.77;;;;;;;;;;10122985;28;20052;-76
2024/03/21 06:41:16;;;;;;;21.17;15.85;;;;;;;;;;10128399;28;20106;-77
2024/03/21 06:46:09;;;;;;;40.75;33.22;;;;;;;;;;10127794;28;20605;-75
2024/03/21 06:51:08;;;;;;;15.52;11.75;;;;;;;;;;10128730;28;20045;-75
2024/03/21 06:56:00;;;;;;;11.57;9.90;;;;;;;;;;10126188;28;20029;-75
2024/03/21 07:00:53;;;;;;;24.50;15.73;;;;;;;;;;10126830;28;20041;-74
2024/03/21 07:05:46;;;;;;;28.83;18.27;;;;;;;;;;10125386;28;20075;-76
2024/03/21 07:10:38;;;;;;;20.85;18.63;;;;;;;;;;10126103;28;20080;-75
2024/03/21 07:15:31;;;;;;;28.65;15.88;;;;;;;;;;10123307;28;20049;-75
2024/03/21 07:20:23;;;;;;;23.02;16.42;;;;;;;;;;10126644;28;20527;-78
2024/03/21 07:25:16;;;;;;;30.80;17.33;;;;;;;;;;10126656;28;20446;-78
2024/03/21 07:30:11;;;;;;;20.65;16.05;;;;;;;;;;10125483;28;20047;-78
2024/03/21 07:35:05;;;;;;;34.03;18.70;;;;;;;;;;10126201;28;20461;-79
2024/03/21 07:40:01;;;;;;;28.80;22.67;;;;;;;;;;10126306;28;20138;-80
2024/03/21 07:44:54;;;;;;;28.73;20.05;;;;;;;;;;10122806;28;20049;-79
2024/03/21 07:49:46;;;;;;;28.80;19.73;;;;;;;;;;10123423;28;20102;-80
2024/03/21 07:54:39;;;;;;;25.52;18.00;;;;;;;;;;10120027;28;20513;-80
2024/03/21 07:59:31;;;;;;;19.67;16.05;;;;;;;;;;10120286;28;20049;-79
2024/03/21 08:04:24;;;;;;;23.23;15.63;;;;;;;;;;10115431;28;20043;-78
2024/03/21 08:09:16;;;;;;;19.65;15.68;;;;;;;;;;10118983;28;20052;-79
2024/03/21 08:14:08;;;;;;;22.05;15.25;;;;;;;;;;10122109;28;20057;-79
2024/03/21 08:19:01;;;;;;;25.33;16.65;;;;;;;;;;10120107;28;20054;-79
2024/03/21 08:23:54;;;;;;;21.75;16.83;;;;;;;;;;10131710;28;20151;-81
2024/03/21 08:28:47;;;;;;;24.77;18.75;;;;;;;;;;10128436;28;20036;-81
2024/03/21 08:33:39;;;;;;;22.17;17.40;;;;;;;;;;10138139;28;20044;-82
2024/03/21 08:38:31;;;;;;;22.23;18.60;;;;;;;;;;10128831;28;20048;-81
2024/03/21 08:43:23;;;;;;;18.38;15.30;;;;;;;;;;10130194;28;20146;-81
2024/03/21 08:48:17;;;;;;;16.70;14.90;;;;;;;;;;10133801;28;20125;-81
2024/03/21 08:53:09;;;;;;;20.30;15.00;;;;;;;;;;10130940;28;20076;-81
2024/03/21 08:58:03;;;;;;;18.63;16.05;;;;;;;;;;10126416;28;20052;-81
2024/03/21 09:02:56;;;;;;;25.50;16.48;;;;;;;;;;10126918;28;20044;-80
2024/03/21 09:07:48;;;;;;;17.88;16.02;;;;;;;;;;10125695;28;20178;-81
2024/03/21 09:12:42;;;;;;;20.27;18.08;;;;;;;;;;10139016;28;20052;-82
2024/03/21 09:17:35;;;;;;;19.60;16.95;;;;;;;;;;10147684;28;20049;-81
2024/03/21 09:22:28;;;;;;;19.63;17.20;;;;;;;;;;10124174;28;20071;-82
2024/03/21 09:27:20;;;;;;;22.98;17.33;;;;;;;;;;10126570;28;20058;-82
2024/03/21 09:32:12;;;;;;;22.58;17.38;;;;;;;;;;10121897;28;20059;-82
2024/03/21 09:37:05;;;;;;;22.08;17.38;;;;;;;;;;10130308;28;20508;-82
2024/03/21 09:41:58;;;;;;;21.58;19.00;;;;;;;;;;10132002;28;20561;-83
2024/03/21 09:46:50;;;;;;;26.30;20.40;;;;;;;;;;10128532;28;20048;-82
2024/03/21 09:51:43;;;;;;;23.13;18.90;;;;;;;;;;10128658;28;20507;-84
2024/03/21 09:56:35;;;;;;;25.33;20.60;;;;;;;;;;10129558;28;20087;-82
2024/03/21 10:01:28;;;;;;;30.10;22.17;;;;;;;;;;10126715;28;20136;-81
2024/03/21 10:06:20;;;;;;;29.20;21.73;;;;;;;;;;10116307;28;20075;-83
2024/03/21 10:11:12;;;;;;;22.70;20.25;;;;;;;;;;10129094;28;20060;-82
2024/03/21 10:16:04;;;;;;;27.52;21.60;;;;;;;;;;10135924;28;20048;-83
2024/03/21 10:21:01;;;;;;;26.00;21.10;;;;;;;;;;10132246;28;20051;-82
2024/03/21 10:25:53;;;;;;;22.75;20.27;;;;;;;;;;10120365;28;20479;-82
2024/03/21 10:30:46;;;;;;;22.60;19.75;;;;;;;;;;10127766;28;20044;-81
2024/03/21 10:35:38;;;;;;;30.02;21.02;;;;;;;;;;10130080;28;20561;-82
2024/03/21 10:40:31;;;;;;;21.30;19.05;;;;;;;;;;10132916;28;20124;-83
2024/03/21 10:45:24;;;;;;;24.98;19.17;;;;;;;;;;10125592;28;20040;-83
2024/03/21 10:50:20;;;;;;;21.60;19.15;;;;;;;;;;10125816;28;20040;-83
2024/03/21 10:55:18;;;;;;;18.47;16.57;;;;;;;;;;10126590;28;20072;-83
2024/03/21 11:00:14;;;;;;;21.85;18.27;;;;;;;;;;10124757;28;20306;-82
2024/03/21 11:05:13;;;;;;;25.83;17.05;;;;;;;;;;10122430;28;20036;-81
2024/03/21 11:10:12;;;;;;;23.80;21.10;;;;;;;;;;10125006;28;20086;-81
2024/03/21 11:15:07;;;;;;;22.80;20.38;;;;;;;;;;10108483;28;20048;-82
2024/03/21 11:20:04;;;;;;;24.65;22.05;;;;;;;;;;10123271;28;20052;-82
2024/03/21 11:24:57;;;;;;;22.25;19.13;;;;;;;;;;10128319;28;20058;-82
2024/03/21 11:29:49;;;;;;;19.30;17.27;;;;;;;;;;10107375;28;20443;-82
2024/03/21 11:34:41;;;;;;;20.80;17.15;;;;;;;;;;10133390;28;20041;-81
2024/03/21 11:39:39;;;;;;;19.58;16.88;;;;;;;;;;10129143;28;20155;-83
2024/03/21 11:44:32;;;;;;;22.85;19.33;;;;;;;;;;10124737;28;20044;-81
2024/03/21 11:49:28;;;;;;;26.50;20.08;;;;;;;;;;10125004;28;20075;-82
2024/03/21 11:54:21;;;;;;;24.58;21.92;;;;;;;;;;10105462;28;20071;-82
2024/03/21 11:59:14;;;;;;;23.25;20.75;;;;;;;;;;10131847;28;20048;-81
2024/03/21 12:04:07;;;;;;;21.77;19.48;;;;;;;;;;10130422;28;20096;-81
2024/03/21 12:09:00;;;;;;;21.48;19.00;;;;;;;;;;10131678;28;20052;-80
2024/03/21 12:13:53;;;;;;;24.70;22.13;;;;;;;;;;10130422;28;20572;-80
2024/03/21 12:18:46;;;;;;;23.63;20.83;;;;;;;;;;10132780;28;20488;-79
2024/03/21 12:23:38;;;;;;;24.85;20.77;;;;;;;;;;10135469;28;20048;-79
2024/03/21 12:28:31;;;;;;;22.80;20.17;;;;;;;;;;10131450;28;20040;-78
2024/03/21 12:33:24;;;;;;;25.50;20.73;;;;;;;;;;10126735;28;20136;-80
2024/03/21 12:38:17;;;;;;;23.60;20.60;;;;;;;;;;10134023;28;20504;-79
2024/03/21 12:43:10;;;;;;;28.10;20.58;;;;;;;;;;10140206;28;20045;-79
2024/03/21 12:48:05;;;;;;;26.23;20.30;;;;;;;;;;10074614;28;20060;-79
2024/03/21 12:52:57;;;;;;;28.15;20.27;;;;;;;;;;10082532;28;20054;-79
2024/03/21 12:57:52;;;;;;;24.00;19.38;;;;;;;;;;10076990;28;20051;-78
2024/03/21 13:02:44;;;;;;;25.60;21.63;;;;;;;;;;10075670;28;20535;-79
2024/03/21 13:07:37;;;;;;;23.63;18.98;;;;;;;;;;10068426;28;20444;-78
2024/03/21 13:12:29;;;;;;;24.95;20.65;;;;;;;;;;10068738;28;20049;-79
2024/03/21 13:17:22;;;;;;;20.67;17.88;;;;;;;;;;10068477;28;20124;-78
2024/03/21 13:22:14;;;;;;;24.15;19.90;;;;;;;;;;10064669;28;20051;-78
2024/03/21 13:27:08;;;;;;;24.38;21.55;;;;;;;;;;10074017;28;20049;-77
2024/03/21 13:32:01;;;;;;;25.40;20.30;;;;;;;;;;10069837;28;20135;-77
2024/03/21 13:36:53;;;;;;;23.85;21.30;;;;;;;;;;10066408;28;20068;-77
2024/03/21 13:41:44;;;;;;;24.00;19.70;;;;;;;;;;10075224;28;20041;-79
2024/03/21 13:46:37;;;;;;;30.77;22.70;;;;;;;;;;10092652;28;20488;-77
2024/03/21 13:51:37;;;;;;;26.13;20.65;;;;;;;;;;10104805;28;20041;-78
2024/03/21 13:56:29;;;;;;;22.92;19.83;;;;;;;;;;10104766;28;20562;-77
2024/03/21 14:01:21;;;;;;;24.92;21.23;;;;;;;;;;10104051;28;20528;-78
2024/03/21 14:06:23;;;;;;;26.65;19.30;;;;;;;;;;10103104;28;20053;-78
2024/03/21 14:11:26;;;;;;;25.17;20.75;;;;;;;;;;10103250;28;20428;-78
2024/03/21 14:16:19;;;;;;;25.70;21.35;;;;;;;;;;10103016;28;20052;-78
2024/03/21 14:21:11;;;;;;;23.73;18.17;;;;;;;;;;10104020;28;20072;-78
2024/03/21 14:26:04;;;;;;;23.45;19.33;;;;;;;;;;10104320;28;20051;-78
2024/03/21 14:30:57;;;;;;;25.20;20.10;;;;;;;;;;10109125;28;20041;-78
2024/03/21 14:35:49;;;;;;;25.98;19.77;;;;;;;;;;10103312;28;20057;-77
2024/03/21 14:40:41;;;;;;;24.20;18.23;;;;;;;;;;10101640;28;20072;-78
2024/03/21 14:45:34;;;;;;;24.85;19.98;;;;;;;;;;10118981;28;20048;-78
2024/03/21 14:50:27;;;;;;;19.95;17.42;;;;;;;;;;10121625;28;20093;-78
2024/03/21 14:55:19;;;;;;;24.95;18.48;;;;;;;;;;10126634;28;20049;-78
2024/03/21 15:00:15;;;;;;;20.90;16.85;;;;;;;;;;10124477;28;20052;-78
2024/03/21 15:05:08;;;;;;;26.50;19.63;;;;;;;;;;10124468;28;20044;-78
2024/03/21 15:10:05;;;;;;;23.75;18.27;;;;;;;;;;10115706;28;20048;-78
2024/03/21 15:14:58;;;;;;;20.92;17.70;;;;;;;;;;10130907;28;20045;-78
2024/03/21 15:19:53;;;;;;;23.02;18.17;;;;;;;;;;10126764;28;20497;-80
2024/03/21 15:24:46;;;;;;;22.80;18.73;;;;;;;;;;10132206;28;20553;-79
2024/03/21 15:29:39;;;;;;;25.15;18.55;;;;;;;;;;10126617;28;20053;-80
2024/03/21 15:34:31;;;;;;;17.90;15.68;;;;;;;;;;10133237;28;20093;-80
2024/03/21 15:39:24;;;;;;;22.60;18.50;;;;;;;;;;10141682;28;20496;-79
2024/03/21 15:44:17;;;;;;;22.55;16.38;;;;;;;;;;10134456;28;20393;-80
2024/03/21 15:49:09;;;;;;;22.77;16.42;;;;;;;;;;10132913;28;20071;-80
2024/03/21 15:54:01;;;;;;;19.73;16.02;;;;;;;;;;10132889;28;20127;-80
2024/03/21 15:58:54;;;;;;;23.58;16.42;;;;;;;;;;10129466;28;20048;-81
2024/03/21 16:03:46;;;;;;;19.67;16.55;;;;;;;;;;10133891;28;20115;-80
2024/03/21 16:08:39;;;;;;;29.92;21.05;;;;;;;;;;10132250;28;20098;-81
2024/03/21 16:13:32;;;;;;;26.65;18.67;;;;;;;;;;10142152;28;20056;-79
2024/03/21 16:18:25;;;;;;;21.92;17.73;;;;;;;;;;10136221;28;20055;-81
2024/03/21 16:23:17;;;;;;;31.35;18.08;;;;;;;;;;10131928;28;20407;-81
2024/03/21 16:28:09;;;;;;;23.13;17.83;;;;;;;;;;10137155;28;20075;-81
2024/03/21 16:33:04;;;;;;;25.77;17.13;;;;;;;;;;10134255;28;20041;-84
2024/03/21 16:37:56;;;;;;;20.98;18.60;;;;;;;;;;10132259;28;20132;-79
2024/03/21 16:42:49;;;;;;;23.52;17.02;;;;;;;;;;10134844;28;20032;-82
2024/03/21 16:47:43;;;;;;;21.98;17.95;;;;;;;;;;10131660;28;20040;-78
2024/03/21 16:52:36;;;;;;;24.92;17.58;;;;;;;;;;10129544;28;20094;-81
2024/03/21 16:57:29;;;;;;;26.65;17.98;;;;;;;;;;10132441;28;20047;-77
2024/03/21 17:02:22;;;;;;;20.98;16.40;;;;;;;;;;10127954;28;20094;-80
2024/03/21 17:07:15;;;;;;;20.63;16.58;;;;;;;;;;10133611;28;20047;-78
2024/03/21 17:12:07;;;;;;;23.02;18.13;;;;;;;;;;10131030;28;20047;-78
2024/03/21 17:16:59;;;;;;;26.73;19.63;;;;;;;;;;10129741;28;20052;-78
2024/03/21 17:21:52;;;;;;;35.33;23.00;;;;;;;;;;10133110;28;20048;-77
2024/03/21 17:26:44;;;;;;;58.40;48.55;;;;;;;;;;10127045;28;20192;-79
2024/03/21 17:31:37;;;;;;;40.92;34.28;;;;;;;;;;10122036;28;20109;-78
2024/03/21 17:36:33;;;;;;;26.85;20.58;;;;;;;;;;10124174;28;20053;-78
2024/03/21 17:41:26;;;;;;;30.08;24.02;;;;;;;;;;10125542;28;20119;-77
2024/03/21 17:46:19;;;;;;;58.28;39.22;;;;;;;;;;10126433;28;20072;-77
2024/03/21 17:51:11;;;;;;;117.57;87.40;;;;;;;;;;10124175;28;20431;-78
2024/03/21 17:56:04;;;;;;;39.78;31.33;;;;;;;;;;10124116;28;20051;-77
2024/03/21 18:00:59;;;;;;;28.42;21.85;;;;;;;;;;10120688;28;20499;-77
2024/03/21 18:05:52;;;;;;;29.40;17.55;;;;;;;;;;10137059;28;20054;-77
2024/03/21 18:10:45;;;;;;;40.28;29.67;;;;;;;;;;10126194;28;20076;-77
2024/03/21 18:15:39;;;;;;;32.75;24.52;;;;;;;;;;10126578;28;20056;-77
2024/03/21 18:20:31;;;;;;;29.08;19.80;;;;;;;;;;10130430;28;20132;-78
2024/03/21 18:25:24;;;;;;;27.15;22.25;;;;;;;;;;10125866;28;20044;-77
2024/03/21 18:30:17;;;;;;;30.88;19.30;;;;;;;;;;10143657;28;20424;-77
2024/03/21 18:35:11;;;;;;;25.00;17.88;;;;;;;;;;10118659;28;20046;-77
2024/03/21 18:40:09;;;;;;;26.58;19.00;;;;;;;;;;10128015;28;20037;-78
2024/03/21 18:45:01;;;;;;;28.42;19.42;;;;;;;;;;10126618;28;20055;-77
2024/03/21 18:49:54;;;;;;;24.27;18.30;;;;;;;;;;10134905;28;20045;-78
2024/03/21 18:54:47;;;;;;;30.23;21.83;;;;;;;;;;10134943;28;20080;-79
2024/03/21 18:59:40;;;;;;;42.25;31.92;;;;;;;;;;10125608;28;20584;-76
2024/03/21 19:04:33;;;;;;;26.38;20.17;;;;;;;;;;10126591;28;20067;-77
2024/03/21 19:09:26;;;;;;;28.17;22.08;;;;;;;;;;10132875;28;20396;-78
2024/03/21 19:14:19;;;;;;;40.08;25.38;;;;;;;;;;10121068;28;20062;-78
2024/03/21 19:19:11;;;;;;;26.10;19.80;;;;;;;;;;10127138;28;20117;-79
2024/03/21 19:24:05;;;;;;;27.35;20.90;;;;;;;;;;10131639;28;20504;-77
2024/03/21 19:28:57;;;;;;;30.98;20.85;;;;;;;;;;10126737;28;20407;-77
2024/03/21 19:33:49;;;;;;;32.45;24.20;;;;;;;;;;10123795;28;20052;-79
2024/03/21 19:38:41;;;;;;;35.38;26.40;;;;;;;;;;10125302;28;20044;-78
2024/03/21 19:43:33;;;;;;;37.33;28.77;;;;;;;;;;10117789;28;20048;-78
2024/03/21 19:48:26;;;;;;;40.92;30.65;;;;;;;;;;10130193;28;20541;-80
2024/03/21 19:53:19;;;;;;;47.17;31.80;;;;;;;;;;10134523;28;20098;-77
2024/03/21 19:58:11;;;;;;;54.15;37.03;;;;;;;;;;10131153;28;20053;-76
2024/03/21 20:03:04;;;;;;;50.97;36.80;;;;;;;;;;10127473;28;20052;-74
2024/03/21 20:07:57;;;;;;;53.40;33.97;;;;;;;;;;10123600;28;20052;-77
2024/03/21 20:12:49;;;;;;;58.05;34.15;;;;;;;;;;10123125;28;20036;-77
2024/03/21 20:17:42;;;;;;;45.58;29.90;;;;;;;;;;10113749;28;20127;-74
2024/03/21 20:22:35;;;;;;;49.50;36.42;;;;;;;;;;10130624;28;20095;-74
2024/03/21 20:27:27;;;;;;;60.45;37.83;;;;;;;;;;10131458;28;20052;-74
2024/03/21 20:32:20;;;;;;;49.30;35.17;;;;;;;;;;10132942;28;20044;-74
2024/03/21 20:37:13;;;;;;;47.83;33.60;;;;;;;;;;10130680;28;20066;-73
2024/03/21 20:42:07;;;;;;;90.25;53.15;;;;;;;;;;10132258;28;20158;-74
2024/03/21 20:47:00;;;;;;;66.28;43.67;;;;;;;;;;10126347;28;20049;-73
2024/03/21 20:51:53;;;;;;;62.75;41.53;;;;;;;;;;10131524;28;20049;-73
2024/03/21 20:56:45;;;;;;;46.50;32.33;;;;;;;;;;10132685;28;20052;-73
2024/03/21 21:01:37;;;;;;;42.88;32.63;;;;;;;;;;10131597;28;20080;-73
2024/03/21 21:06:30;;;;;;;52.28;35.10;;;;;;;;;;10129716;28;20496;-74
2024/03/21 21:11:22;;;;;;;43.78;31.27;;;;;;;;;;10130103;28;20053;-73
2024/03/21 21:16:14;;;;;;;51.15;36.00;;;;;;;;;;10129614;28;20060;-75
2024/03/21 21:21:08;;;;;;;48.30;34.20;;;;;;;;;;10127539;28;20041;-74
2024/03/21 21:26:27;;;;;;;47.75;34.47;;;;;;;;;;10127173;28;20040;-72
2024/03/21 21:31:20;;;;;;;42.50;30.25;;;;;;;;;;10126416;28;20075;-73
2024/03/21 21:36:17;;;;;;;47.90;34.10;;;;;;;;;;10130241;28;20413;-73
2024/03/21 21:41:10;;;;;;;45.20;32.97;;;;;;;;;;10131087;28;20044;-77
2024/03/21 21:46:04;;;;;;;43.30;30.83;;;;;;;;;;10103112;28;20053;-80
2024/03/21 21:51:12;;;;;;;49.63;33.38;;;;;;;;;;10107959;28;20056;-80
2024/03/21 21:56:08;;;;;;;48.78;31.95;;;;;;;;;;10098271;28;20073;-79
2024/03/21 22:01:00;;;;;;;52.97;35.42;;;;;;;;;;10107415;28;20401;-78
2024/03/21 22:05:58;;;;;;;52.45;34.38;;;;;;;;;;10107502;28;20459;-83
2024/03/21 22:10:51;;;;;;;52.00;37.47;;;;;;;;;;10106794;28;20517;-81
2024/03/21 22:15:47;;;;;;;52.75;36.10;;;;;;;;;;10106681;28;20041;-79
2024/03/21 22:20:39;;;;;;;58.80;39.40;;;;;;;;;;10085747;28;20043;-77
2024/03/21 22:25:32;;;;;;;54.80;36.33;;;;;;;;;;10103120;28;20090;-76
2024/03/21 22:30:32;;;;;;;55.28;39.55;;;;;;;;;;10103819;28;20082;-77
2024/03/21 22:35:25;;;;;;;55.53;39.50;;;;;;;;;;10099460;28;20053;-77
2024/03/21 22:40:18;;;;;;;54.55;38.88;;;;;;;;;;10099529;28;20056;-79
2024/03/21 22:45:10;;;;;;;52.05;38.20;;;;;;;;;;10116926;28;20057;-79
2024/03/21 22:50:04;;;;;;;55.85;40.08;;;;;;;;;;10112344;28;20139;-76
2024/03/21 22:54:56;;;;;;;51.55;39.33;;;;;;;;;;10128617;28;20047;-76
2024/03/21 22:59:50;;;;;;;53.20;38.03;;;;;;;;;;10129032;28;20378;-77
2024/03/21 23:04:42;;;;;;;56.83;39.30;;;;;;;;;;10127074;28;20052;-77
2024/03/21 23:09:34;;;;;;;52.20;37.90;;;;;;;;;;10119422;28;20041;-77
2024/03/21 23:14:26;;;;;;;64.80;42.00;;;;;;;;;;10128154;28;20051;-77
2024/03/21 23:19:18;;;;;;;57.80;38.63;;;;;;;;;;10128368;28;20128;-77
2024/03/21 23:24:10;;;;;;;65.93;41.38;;;;;;;;;;10128349;28;20049;-77
2024/03/21 23:29:03;;;;;;;60.17;40.03;;;;;;;;;;10127900;28;20471;-78
2024/03/21 23:33:54;;;;;;;59.05;40.90;;;;;;;;;;10125495;28;20056;-78
2024/03/21 23:38:47;;;;;;;58.28;40.17;;;;;;;;;;10127861;28;20056;-78
2024/03/21 23:43:39;;;;;;;63.45;42.63;;;;;;;;;;10125692;28;20535;-76
2024/03/21 23:48:32;;;;;;;59.92;42.03;;;;;;;;;;10126232;28;20048;-77
2024/03/21 23:53:24;;;;;;;75.60;49.55;;;;;;;;;;10129923;28;21175;-77
2024/03/21 23:58:16;;;;;;;74.93;50.60;;;;;;;;;;10137358;28;20076;-78
